sensor_id;sensor_type;location;lat;lon;timestamp;pressure;altitude;pressure_sealevel;temperature;humidity
62524;BME280;53689;56.878;60.672;2024-03-08T00:02:12;97311.94;;;21.11;22.16
62524;BME280;53689;56.878;60.672;2024-03-08T00:04:40;97297.03;;;21.08;22.53
62524;BME280;53689;56.878;60.672;2024-03-08T00:07:08;97307.13;;;20.87;22.59
62524;BME280;53689;56.878;60.672;2024-03-08T00:09:36;97304.25;;;20.82;21.91
62524;BME280;53689;56.878;60.672;2024-03-08T00:12:04;97302.16;;;20.84;21.51
62524;BME280;53689;56.878;60.672;2024-03-08T00:14:32;97294.34;;;21.08;22.56
62524;BME280;53689;56.878;60.672;2024-03-08T00:17:00;97295.22;;;21.02;20.48
62524;BME280;53689;56.878;60.672;2024-03-08T00:19:30;97292.78;;;20.93;22.40
62524;BME280;53689;56.878;60.672;2024-03-08T00:21:58;97284.66;;;21.00;22.52
62524;BME280;53689;56.878;60.672;2024-03-08T00:24:25;97282.91;;;20.87;21.87
62524;BME280;53689;56.878;60.672;2024-03-08T00:26:53;97281.72;;;20.70;21.68
62524;BME280;53689;56.878;60.672;2024-03-08T00:29:21;97278.94;;;20.51;21.62
62524;BME280;53689;56.878;60.672;2024-03-08T00:31:49;97283.66;;;20.56;21.53
62524;BME280;53689;56.878;60.672;2024-03-08T00:34:16;97272.16;;;20.42;21.43
62524;BME280;53689;56.878;60.672;2024-03-08T00:36:46;97274.66;;;21.07;21.92
62524;BME280;53689;56.878;60.672;2024-03-08T00:39:13;97270.19;;;21.01;22.36
62524;BME280;53689;56.878;60.672;2024-03-08T00:41:41;97265.53;;;21.15;23.07
62524;BME280;53689;56.878;60.672;2024-03-08T00:44:09;97266.53;;;20.89;22.00
62524;BME280;53689;56.878;60.672;2024-03-08T00:46:37;97264.59;;;20.57;21.91
62524;BME280;53689;56.878;60.672;2024-03-08T00:49:05;97253.97;;;20.37;21.83
62524;BME280;53689;56.878;60.672;2024-03-08T00:51:34;97259.38;;;20.69;20.21
62524;BME280;53689;56.878;60.672;2024-03-08T00:54:03;97249.56;;;20.88;22.49
62524;BME280;53689;56.878;60.672;2024-03-08T00:56:31;97240.41;;;20.96;23.52
62524;BME280;53689;56.878;60.672;2024-03-08T00:58:58;97237.84;;;21.08;22.25
62524;BME280;53689;56.878;60.672;2024-03-08T01:01:26;97245.47;;;21.11;22.82
62524;BME280;53689;56.878;60.672;2024-03-08T01:03:54;97233.66;;;20.80;20.98
62524;BME280;53689;56.878;60.672;2024-03-08T01:06:22;97231.88;;;20.67;22.63
62524;BME280;53689;56.878;60.672;2024-03-08T01:08:49;97226.84;;;20.77;22.53
62524;BME280;53689;56.878;60.672;2024-03-08T01:11:19;97238.38;;;20.91;23.19
62524;BME280;53689;56.878;60.672;2024-03-08T01:13:47;97232.06;;;21.04;22.58
62524;BME280;53689;56.878;60.672;2024-03-08T01:16:15;97227.16;;;20.95;23.00
62524;BME280;53689;56.878;60.672;2024-03-08T01:18:43;97227.22;;;20.88;24.18
62524;BME280;53689;56.878;60.672;2024-03-08T01:21:11;97218.69;;;20.59;22.06
62524;BME280;53689;56.878;60.672;2024-03-08T01:23:39;97224.03;;;20.65;25.09
62524;BME280;53689;56.878;60.672;2024-03-08T01:26:07;97220.56;;;20.90;21.80
62524;BME280;53689;56.878;60.672;2024-03-08T01:28:36;97217.72;;;20.85;21.97
62524;BME280;53689;56.878;60.672;2024-03-08T01:31:04;97215.25;;;20.77;23.50
62524;BME280;53689;56.878;60.672;2024-03-08T01:33:32;97218.09;;;20.89;23.39
62524;BME280;53689;56.878;60.672;2024-03-08T01:36:00;97219.25;;;21.00;22.21
62524;BME280;53689;56.878;60.672;2024-03-08T01:38:28;97209.88;;;20.84;21.17
62524;BME280;53689;56.878;60.672;2024-03-08T01:40:55;97212.53;;;20.51;23.56
62524;BME280;53689;56.878;60.672;2024-03-08T01:43:26;97202.19;;;20.80;22.38
62524;BME280;53689;56.878;60.672;2024-03-08T01:45:58;97201.03;;;21.02;21.92
62524;BME280;53689;56.878;60.672;2024-03-08T01:48:26;97207.50;;;20.62;23.34
62524;BME280;53689;56.878;60.672;2024-03-08T01:50:55;97206.47;;;20.95;24.17
62524;BME280;53689;56.878;60.672;2024-03-08T01:53:24;97200.09;;;20.89;23.45
62524;BME280;53689;56.878;60.672;2024-03-08T01:55:56;97198.88;;;20.85;21.89
62524;BME280;53689;56.878;60.672;2024-03-08T01:58:26;97190.91;;;20.40;23.09
62524;BME280;53689;56.878;60.672;2024-03-08T02:00:57;97201.56;;;20.85;22.73
62524;BME280;53689;56.878;60.672;2024-03-08T02:03:25;97196.81;;;20.80;22.71
62524;BME280;53689;56.878;60.672;2024-03-08T02:05:52;97198.34;;;20.70;23.62
62524;BME280;53689;56.878;60.672;2024-03-08T02:08:21;97196.63;;;20.82;23.14
62524;BME280;53689;56.878;60.672;2024-03-08T02:10:50;97198.00;;;20.91;21.92
62524;BME280;53689;56.878;60.672;2024-03-08T02:13:18;97199.56;;;20.74;21.78
62524;BME280;53689;56.878;60.672;2024-03-08T02:15:51;97204.06;;;20.48;23.13
62524;BME280;53689;56.878;60.672;2024-03-08T02:18:21;97198.31;;;20.44;22.03
62524;BME280;53689;56.878;60.672;2024-03-08T02:20:51;97197.19;;;20.59;22.36
62524;BME280;53689;56.878;60.672;2024-03-08T02:23:19;97200.66;;;20.66;22.86
62524;BME280;53689;56.878;60.672;2024-03-08T02:25:47;97202.84;;;20.76;22.46
62524;BME280;53689;56.878;60.672;2024-03-08T02:28:15;97201.09;;;20.95;22.87
62524;BME280;53689;56.878;60.672;2024-03-08T02:30:42;97199.81;;;20.65;22.87
62524;BME280;53689;56.878;60.672;2024-03-08T02:33:10;97200.34;;;20.49;21.73
62524;BME280;53689;56.878;60.672;2024-03-08T02:35:41;97204.94;;;20.42;21.20
62524;BME280;53689;56.878;60.672;2024-03-08T02:38:13;97195.91;;;20.29;21.05
62524;BME280;53689;56.878;60.672;2024-03-08T02:40:41;97200.28;;;20.23;20.73
62524;BME280;53689;56.878;60.672;2024-03-08T02:43:09;97199.47;;;20.23;19.74
62524;BME280;53689;56.878;60.672;2024-03-08T02:45:37;97199.91;;;20.13;20.93
62524;BME280;53689;56.878;60.672;2024-03-08T02:48:05;97193.38;;;20.02;19.96
62524;BME280;53689;56.878;60.672;2024-03-08T02:50:33;97193.38;;;20.02;19.56
62524;BME280;53689;56.878;60.672;2024-03-08T02:53:01;97197.91;;;20.02;19.99
62524;BME280;53689;56.878;60.672;2024-03-08T02:55:31;97197.25;;;20.06;19.35
62524;BME280;53689;56.878;60.672;2024-03-08T02:57:59;97200.38;;;20.03;19.00
62524;BME280;53689;56.878;60.672;2024-03-08T03:00:27;97197.69;;;20.03;19.63
62524;BME280;53689;56.878;60.672;2024-03-08T03:02:55;97183.25;;;19.98;19.82
62524;BME280;53689;56.878;60.672;2024-03-08T03:05:23;97190.69;;;19.89;20.47
62524;BME280;53689;56.878;60.672;2024-03-08T03:07:51;97195.84;;;19.97;19.58
62524;BME280;53689;56.878;60.672;2024-03-08T03:10:19;97193.16;;;19.97;19.59
62524;BME280;53689;56.878;60.672;2024-03-08T03:12:49;97187.09;;;19.49;20.76
62524;BME280;53689;56.878;60.672;2024-03-08T03:15:16;97193.88;;;19.59;20.41
62524;BME280;53689;56.878;60.672;2024-03-08T03:17:46;97193.88;;;19.59;19.11
62524;BME280;53689;56.878;60.672;2024-03-08T03:20:14;97191.41;;;19.57;18.55
62524;BME280;53689;56.878;60.672;2024-03-08T03:22:42;97198.59;;;19.70;18.42
62524;BME280;53689;56.878;60.672;2024-03-08T03:25:10;97200.69;;;19.68;19.05
62524;BME280;53689;56.878;60.672;2024-03-08T03:27:38;97190.53;;;19.70;18.79
62524;BME280;53689;56.878;60.672;2024-03-08T03:30:08;97188.50;;;19.65;19.15
62524;BME280;53689;56.878;60.672;2024-03-08T03:32:37;97181.69;;;19.63;19.75
62524;BME280;53689;56.878;60.672;2024-03-08T03:35:05;97188.91;;;19.62;19.14
62524;BME280;53689;56.878;60.672;2024-03-08T03:37:33;97182.09;;;19.60;19.90
62524;BME280;53689;56.878;60.672;2024-03-08T03:40:01;97181.88;;;19.68;20.04
62524;BME280;53689;56.878;60.672;2024-03-08T03:42:29;97185.59;;;19.67;19.38
62524;BME280;53689;56.878;60.672;2024-03-08T03:44:56;97188.50;;;19.65;19.38
62524;BME280;53689;56.878;60.672;2024-03-08T03:47:26;97187.84;;;19.70;19.39
62524;BME280;53689;56.878;60.672;2024-03-08T03:49:54;97182.31;;;19.58;20.00
62524;BME280;53689;56.878;60.672;2024-03-08T03:52:22;97183.16;;;19.59;19.59
62524;BME280;53689;56.878;60.672;2024-03-08T03:54:49;97189.34;;;19.66;19.49
62524;BME280;53689;56.878;60.672;2024-03-08T03:57:17;97182.09;;;19.60;19.93
62524;BME280;53689;56.878;60.672;2024-03-08T03:59:45;97184.63;;;19.54;20.09
62524;BME280;53689;56.878;60.672;2024-03-08T04:02:13;97176.34;;;19.56;19.82
62524;BME280;53689;56.878;60.672;2024-03-08T04:04:42;97183.16;;;19.59;20.07
62524;BME280;53689;56.878;60.672;2024-03-08T04:07:10;97175.53;;;19.55;19.94
62524;BME280;53689;56.878;60.672;2024-03-08T04:09:38;97172.41;;;19.59;19.75
62524;BME280;53689;56.878;60.672;2024-03-08T04:12:06;97174.47;;;19.57;19.86
62524;BME280;53689;56.878;60.672;2024-03-08T04:14:34;97168.69;;;19.60;19.85
62524;BME280;53689;56.878;60.672;2024-03-08T04:17:02;97169.13;;;19.57;19.80
62524;BME280;53689;56.878;60.672;2024-03-08T04:19:30;97169.13;;;19.57;19.81
62524;BME280;53689;56.878;60.672;2024-03-08T04:21:59;97164.78;;;19.55;19.99
62524;BME280;53689;56.878;60.672;2024-03-08T04:24:27;97172.00;;;19.55;20.13
62524;BME280;53689;56.878;60.672;2024-03-08T04:26:55;97158.38;;;19.57;19.72
62524;BME280;53689;56.878;60.672;2024-03-08T04:29:23;97168.72;;;19.53;19.40
62524;BME280;53689;56.878;60.672;2024-03-08T04:31:51;97161.06;;;19.57;19.98
62524;BME280;53689;56.878;60.672;2024-03-08T04:34:19;97156.72;;;19.55;19.56
62524;BME280;53689;56.878;60.672;2024-03-08T04:36:47;97162.50;;;19.52;19.94
62524;BME280;53689;56.878;60.672;2024-03-08T04:39:16;97162.50;;;19.52;20.18
62524;BME280;53689;56.878;60.672;2024-03-08T04:41:44;97155.50;;;19.51;20.33
62524;BME280;53689;56.878;60.672;2024-03-08T04:44:12;97159.22;;;19.50;19.76
62524;BME280;53689;56.878;60.672;2024-03-08T04:46:40;97155.88;;;19.62;20.43
62524;BME280;53689;56.878;60.672;2024-03-08T04:49:08;97156.50;;;19.57;19.48
62524;BME280;53689;56.878;60.672;2024-03-08T04:51:36;97149.31;;;19.51;19.46
62524;BME280;53689;56.878;60.672;2024-03-08T04:54:04;97151.78;;;19.46;19.83
62524;BME280;53689;56.878;60.672;2024-03-08T04:56:33;97158.81;;;19.47;20.02
62524;BME280;53689;56.878;60.672;2024-03-08T04:59:01;97146.81;;;19.49;19.84
62524;BME280;53689;56.878;60.672;2024-03-08T05:01:29;97140.25;;;19.45;20.15
62524;BME280;53689;56.878;60.672;2024-03-08T05:03:57;97150.97;;;19.45;19.98
62524;BME280;53689;56.878;60.672;2024-03-08T05:06:31;97152.22;;;19.43;20.01
62524;BME280;53689;56.878;60.672;2024-03-08T05:08:59;97150.56;;;19.41;19.92
62524;BME280;53689;56.878;60.672;2024-03-08T05:11:27;97149.75;;;19.41;20.38
62524;BME280;53689;56.878;60.672;2024-03-08T05:13:56;97147.06;;;19.41;20.24
62524;BME280;53689;56.878;60.672;2024-03-08T05:16:24;97143.94;;;19.44;20.13
62524;BME280;53689;56.878;60.672;2024-03-08T05:18:53;97150.34;;;19.43;19.55
62524;BME280;53689;56.878;60.672;2024-03-08T05:21:20;97147.66;;;19.43;20.25
62524;BME280;53689;56.878;60.672;2024-03-08T05:23:49;97149.94;;;19.39;19.62
62524;BME280;53689;56.878;60.672;2024-03-08T05:26:18;97134.47;;;19.41;20.15
62524;BME280;53689;56.878;60.672;2024-03-08T05:28:46;97144.81;;;19.38;20.19
62524;BME280;53689;56.878;60.672;2024-03-08T05:31:19;97135.31;;;19.35;19.85
62524;BME280;53689;56.878;60.672;2024-03-08T05:33:47;97138.59;;;19.37;19.72
62524;BME280;53689;56.878;60.672;2024-03-08T05:36:15;97144.19;;;19.36;20.03
62524;BME280;53689;56.878;60.672;2024-03-08T05:38:43;97131.16;;;19.39;19.95
62524;BME280;53689;56.878;60.672;2024-03-08T05:41:11;97132.81;;;19.34;20.27
62524;BME280;53689;56.878;60.672;2024-03-08T05:43:40;97137.56;;;19.38;19.97
62524;BME280;53689;56.878;60.672;2024-03-08T05:46:09;97135.09;;;19.37;20.49
62524;BME280;53689;56.878;60.672;2024-03-08T05:48:40;97138.00;;;19.35;19.72
62524;BME280;53689;56.878;60.672;2024-03-08T05:51:08;97134.06;;;19.38;20.53
62524;BME280;53689;56.878;60.672;2024-03-08T05:53:36;97138.59;;;19.37;20.34
62524;BME280;53689;56.878;60.672;2024-03-08T05:56:04;97146.44;;;19.39;20.50
62524;BME280;53689;56.878;60.672;2024-03-08T05:58:32;97145.44;;;19.33;20.08
62524;BME280;53689;56.878;60.672;2024-03-08T06:01:00;97138.19;;;19.34;20.41
62524;BME280;53689;56.878;60.672;2024-03-08T06:03:28;97148.28;;;19.38;19.84
62524;BME280;53689;56.878;60.672;2024-03-08T06:05:57;97145.16;;;20.46;21.54
62524;BME280;53689;56.878;60.672;2024-03-08T06:08:25;97144.75;;;19.51;20.20
62524;BME280;53689;56.878;60.672;2024-03-08T06:10:53;97147.06;;;19.41;20.11
62524;BME280;53689;56.878;60.672;2024-03-08T06:13:21;97137.78;;;19.37;20.09
62524;BME280;53689;56.878;60.672;2024-03-08T06:15:49;97136.94;;;19.36;20.03
62524;BME280;53689;56.878;60.672;2024-03-08T06:18:16;97139.00;;;19.41;20.61
62524;BME280;53689;56.878;60.672;2024-03-08T06:20:45;97134.47;;;19.35;19.91
62524;BME280;53689;56.878;60.672;2024-03-08T06:23:14;97136.34;;;19.34;20.43
62524;BME280;53689;56.878;60.672;2024-03-08T06:25:42;97133.66;;;19.34;20.67
62524;BME280;53689;56.878;60.672;2024-03-08T06:28:10;97132.63;;;19.35;20.24
62524;BME280;53689;56.878;60.672;2024-03-08T06:30:38;97131.19;;;19.33;20.04
62524;BME280;53689;56.878;60.672;2024-03-08T06:33:05;97132.00;;;19.33;20.04
62524;BME280;53689;56.878;60.672;2024-03-08T06:35:33;97141.91;;;19.33;20.13
62524;BME280;53689;56.878;60.672;2024-03-08T06:38:01;97129.53;;;19.32;20.01
62524;BME280;53689;56.878;60.672;2024-03-08T06:40:30;97129.72;;;19.30;20.07
62524;BME280;53689;56.878;60.672;2024-03-08T06:42:58;97133.66;;;19.34;20.76
62524;BME280;53689;56.878;60.672;2024-03-08T06:45:26;97133.44;;;19.29;20.69
62524;BME280;53689;56.878;60.672;2024-03-08T06:47:54;97130.56;;;19.31;20.29
62524;BME280;53689;56.878;60.672;2024-03-08T06:50:23;97124.38;;;19.30;20.29
62524;BME280;53689;56.878;60.672;2024-03-08T06:52:51;97135.53;;;19.27;20.42
62524;BME280;53689;56.878;60.672;2024-03-08T06:55:19;97130.78;;;19.36;20.85
62524;BME280;53689;56.878;60.672;2024-03-08T06:57:50;97127.03;;;19.30;20.20
62524;BME280;53689;56.878;60.672;2024-03-08T07:00:18;97130.75;;;19.29;20.11
62524;BME280;53689;56.878;60.672;2024-03-08T07:02:47;97119.25;;;19.22;20.82
62524;BME280;53689;56.878;60.672;2024-03-08T07:05:16;97127.88;;;19.31;20.58
62524;BME280;53689;56.878;60.672;2024-03-08T07:07:44;97122.72;;;19.29;20.44
62524;BME280;53689;56.878;60.672;2024-03-08T07:10:12;97126.03;;;19.24;20.93
62524;BME280;53689;56.878;60.672;2024-03-08T07:12:40;97117.34;;;19.29;21.02
62524;BME280;53689;56.878;60.672;2024-03-08T07:15:09;97117.16;;;19.31;20.91
62524;BME280;53689;56.878;60.672;2024-03-08T07:17:37;97109.72;;;19.33;20.92
62524;BME280;53689;56.878;60.672;2024-03-08T07:20:06;97105.59;;;19.23;20.63
62524;BME280;53689;56.878;60.672;2024-03-08T07:22:34;97107.25;;;19.24;20.93
62524;BME280;53689;56.878;60.672;2024-03-08T07:25:02;97104.31;;;19.46;20.70
62524;BME280;53689;56.878;60.672;2024-03-08T07:27:30;97108.09;;;19.25;20.32
62524;BME280;53689;56.878;60.672;2024-03-08T07:29:58;97107.03;;;19.33;20.80
62524;BME280;53689;56.878;60.672;2024-03-08T07:32:30;97107.25;;;19.31;21.51
62524;BME280;53689;56.878;60.672;2024-03-08T07:34:58;97098.94;;;19.39;20.19
62524;BME280;53689;56.878;60.672;2024-03-08T07:37:26;97101.06;;;19.24;20.39
62524;BME280;53689;56.878;60.672;2024-03-08T07:39:54;97094.84;;;19.37;21.04
62524;BME280;53689;56.878;60.672;2024-03-08T07:42:22;97094.69;;;19.18;21.14
62524;BME280;53689;56.878;60.672;2024-03-08T07:44:49;97095.31;;;19.13;20.77
62524;BME280;53689;56.878;60.672;2024-03-08T07:47:17;97095.50;;;19.25;21.41
62524;BME280;53689;56.878;60.672;2024-03-08T07:49:50;97098.38;;;19.24;21.02
62524;BME280;53689;56.878;60.672;2024-03-08T07:52:18;97100.09;;;19.11;21.40
62524;BME280;53689;56.878;60.672;2024-03-08T07:54:46;97099.84;;;19.13;21.23
62524;BME280;53689;56.878;60.672;2024-03-08T07:57:14;97097.56;;;19.23;21.09
62524;BME280;53689;56.878;60.672;2024-03-08T07:59:42;97096.25;;;19.39;21.63
62524;BME280;53689;56.878;60.672;2024-03-08T08:02:09;97091.16;;;19.24;21.16
62524;BME280;53689;56.878;60.672;2024-03-08T08:04:37;97092.22;;;19.17;20.61
62524;BME280;53689;56.878;60.672;2024-03-08T08:07:06;97089.72;;;19.15;21.24
62524;BME280;53689;56.878;60.672;2024-03-08T08:09:34;97086.44;;;19.13;20.55
62524;BME280;53689;56.878;60.672;2024-03-08T08:12:03;97085.81;;;19.18;21.58
62524;BME280;53689;56.878;60.672;2024-03-08T08:14:31;97083.97;;;19.18;20.98
62524;BME280;53689;56.878;60.672;2024-03-08T08:16:59;97086.63;;;19.25;21.83
62524;BME280;53689;56.878;60.672;2024-03-08T08:19:26;97086.03;;;19.16;20.91
62524;BME280;53689;56.878;60.672;2024-03-08T08:21:55;97082.72;;;19.21;21.53
62524;BME280;53689;56.878;60.672;2024-03-08T08:24:24;97082.09;;;19.25;21.43
62524;BME280;53689;56.878;60.672;2024-03-08T08:26:52;97078.38;;;19.13;20.66
62524;BME280;53689;56.878;60.672;2024-03-08T08:29:20;97079.63;;;19.17;20.62
62524;BME280;53689;56.878;60.672;2024-03-08T08:31:48;97092.19;;;19.23;21.10
62524;BME280;53689;56.878;60.672;2024-03-08T08:34:16;97080.44;;;19.18;20.58
62524;BME280;53689;56.878;60.672;2024-03-08T08:36:44;97086.63;;;19.25;20.39
62524;BME280;53689;56.878;60.672;2024-03-08T08:39:12;97079.81;;;19.22;21.17
62524;BME280;53689;56.878;60.672;2024-03-08T08:41:41;97076.50;;;19.20;21.22
62524;BME280;53689;56.878;60.672;2024-03-08T08:44:09;97077.72;;;19.24;20.77
62524;BME280;53689;56.878;60.672;2024-03-08T08:46:40;97074.25;;;19.24;21.08
62524;BME280;53689;56.878;60.672;2024-03-08T08:49:08;97074.03;;;19.19;20.54
62524;BME280;53689;56.878;60.672;2024-03-08T08:51:36;97078.78;;;19.17;20.78
62524;BME280;53689;56.878;60.672;2024-03-08T08:54:05;97075.91;;;19.18;21.17
62524;BME280;53689;56.878;60.672;2024-03-08T08:56:36;97075.91;;;18.98;20.60
62524;BME280;53689;56.878;60.672;2024-03-08T08:59:05;97079.03;;;19.08;20.43
62524;BME280;53689;56.878;60.672;2024-03-08T09:01:33;97067.47;;;19.08;20.84
62524;BME280;53689;56.878;60.672;2024-03-08T09:04:01;97081.28;;;19.18;20.16
62524;BME280;53689;56.878;60.672;2024-03-08T09:06:29;97075.50;;;19.15;20.24
62524;BME280;53689;56.878;60.672;2024-03-08T09:08:57;97075.91;;;19.18;20.31
62524;BME280;53689;56.878;60.672;2024-03-08T09:11:25;97073.84;;;19.20;21.41
62524;BME280;53689;56.878;60.672;2024-03-08T09:13:52;97082.09;;;19.19;20.55
62524;BME280;53689;56.878;60.672;2024-03-08T09:16:22;97081.28;;;19.18;21.16
62524;BME280;53689;56.878;60.672;2024-03-08T09:18:50;97077.75;;;19.18;20.96
62524;BME280;53689;56.878;60.672;2024-03-08T09:21:18;97079.19;;;19.20;20.84
62524;BME280;53689;56.878;60.672;2024-03-08T09:23:49;97074.47;;;19.16;21.73
62524;BME280;53689;56.878;60.672;2024-03-08T09:26:17;97079.84;;;19.09;21.37
62524;BME280;53689;56.878;60.672;2024-03-08T09:28:55;97072.00;;;19.07;21.70
62524;BME280;53689;56.878;60.672;2024-03-08T09:31:25;97078.38;;;19.13;21.23
62524;BME280;53689;56.878;60.672;2024-03-08T09:33:52;97072.22;;;19.06;21.65
62524;BME280;53689;56.878;60.672;2024-03-08T09:36:20;97067.28;;;19.03;21.94
62524;BME280;53689;56.878;60.672;2024-03-08T09:38:48;97075.31;;;19.09;21.66
62524;BME280;53689;56.878;60.672;2024-03-08T09:41:16;97088.91;;;19.21;21.05
62524;BME280;53689;56.878;60.672;2024-03-08T09:43:45;97087.03;;;19.15;21.55
62524;BME280;53689;56.878;60.672;2024-03-08T09:46:14;97082.31;;;19.17;21.09
62524;BME280;53689;56.878;60.672;2024-03-08T09:48:44;97077.16;;;19.16;21.18
62524;BME280;53689;56.878;60.672;2024-03-08T09:51:13;97080.25;;;19.12;21.66
62524;BME280;53689;56.878;60.672;2024-03-08T09:53:41;97081.91;;;19.13;21.55
62524;BME280;53689;56.878;60.672;2024-03-08T09:56:09;97080.66;;;19.16;21.21
62524;BME280;53689;56.878;60.672;2024-03-08T09:58:37;97077.16;;;19.16;21.77
62524;BME280;53689;56.878;60.672;2024-03-08T10:01:05;97085.00;;;19.10;20.91
62524;BME280;53689;56.878;60.672;2024-03-08T10:03:33;97075.91;;;19.18;21.55
62524;BME280;53689;56.878;60.672;2024-03-08T10:06:02;97072.22;;;19.12;21.93
62524;BME280;53689;56.878;60.672;2024-03-08T10:08:31;97071.25;;;20.30;21.74
62524;BME280;53689;56.878;60.672;2024-03-08T10:10:59;97084.75;;;20.49;21.23
62524;BME280;53689;56.878;60.672;2024-03-08T10:13:27;97073.91;;;19.98;20.84
62524;BME280;53689;56.878;60.672;2024-03-08T10:15:56;97081.66;;;19.29;21.88
62524;BME280;53689;56.878;60.672;2024-03-08T10:18:24;97083.97;;;19.18;21.30
62524;BME280;53689;56.878;60.672;2024-03-08T10:21:04;97075.91;;;19.18;21.45
62524;BME280;53689;56.878;60.672;2024-03-08T10:23:33;97077.31;;;19.27;21.16
62524;BME280;53689;56.878;60.672;2024-03-08T10:26:11;97076.72;;;19.25;21.80
62524;BME280;53689;56.878;60.672;2024-03-08T10:28:39;97083.44;;;19.48;23.10
62524;BME280;53689;56.878;60.672;2024-03-08T10:31:07;97085.75;;;20.48;21.80
62524;BME280;53689;56.878;60.672;2024-03-08T10:33:35;97087.78;;;19.95;21.71
62524;BME280;53689;56.878;60.672;2024-03-08T10:36:06;97078.50;;;19.98;22.36
62524;BME280;53689;56.878;60.672;2024-03-08T10:38:36;97088.84;;;19.94;21.11
62524;BME280;53689;56.878;60.672;2024-03-08T10:41:05;97086.19;;;19.28;21.15
62524;BME280;53689;56.878;60.672;2024-03-08T10:43:45;97084.78;;;19.19;21.32
62524;BME280;53689;56.878;60.672;2024-03-08T10:46:29;97090.34;;;19.24;21.77
62524;BME280;53689;56.878;60.672;2024-03-08T10:48:58;97092.16;;;19.30;22.66
62524;BME280;53689;56.878;60.672;2024-03-08T10:51:30;97087.63;;;19.31;22.12
62524;BME280;53689;56.878;60.672;2024-03-08T10:53:59;97094.66;;;19.32;21.88
62524;BME280;53689;56.878;60.672;2024-03-08T10:56:29;97093.19;;;19.29;21.34
62524;BME280;53689;56.878;60.672;2024-03-08T10:58:57;97084.34;;;19.29;21.32
62524;BME280;53689;56.878;60.672;2024-03-08T11:01:25;97090.75;;;19.27;21.40
62524;BME280;53689;56.878;60.672;2024-03-08T11:03:53;97087.03;;;19.29;22.06
62524;BME280;53689;56.878;60.672;2024-03-08T11:06:29;97084.78;;;19.25;21.79
62524;BME280;53689;56.878;60.672;2024-03-08T11:09:00;97091.97;;;19.32;21.31
62524;BME280;53689;56.878;60.672;2024-03-08T11:11:28;97094.25;;;19.28;22.35
62524;BME280;53689;56.878;60.672;2024-03-08T11:14:01;97083.72;;;19.26;21.92
62524;BME280;53689;56.878;60.672;2024-03-08T11:16:40;97089.09;;;19.26;21.94
62524;BME280;53689;56.878;60.672;2024-03-08T11:19:26;97085.38;;;19.27;22.53
62524;BME280;53689;56.878;60.672;2024-03-08T11:21:58;97088.66;;;19.30;21.87
62524;BME280;53689;56.878;60.672;2024-03-08T11:24:37;97082.09;;;19.25;21.85
62524;BME280;53689;56.878;60.672;2024-03-08T11:27:05;97088.03;;;19.34;22.13
62524;BME280;53689;56.878;60.672;2024-03-08T11:29:34;97089.91;;;19.27;21.82
62524;BME280;53689;56.878;60.672;2024-03-08T11:32:07;97084.34;;;19.29;22.26
62524;BME280;53689;56.878;60.672;2024-03-08T11:34:36;97084.34;;;19.29;21.28
62524;BME280;53689;56.878;60.672;2024-03-08T11:37:05;97089.28;;;19.32;21.54
62524;BME280;53689;56.878;60.672;2024-03-08T11:39:35;97082.91;;;19.26;22.53
62524;BME280;53689;56.878;60.672;2024-03-08T11:42:03;97087.84;;;19.22;21.80
62524;BME280;53689;56.878;60.672;2024-03-08T11:44:31;97084.56;;;19.20;21.78
62524;BME280;53689;56.878;60.672;2024-03-08T11:46:59;97088.47;;;19.24;22.03
62524;BME280;53689;56.878;60.672;2024-03-08T11:49:27;97079.19;;;19.27;21.76
62524;BME280;53689;56.878;60.672;2024-03-08T11:51:55;97082.09;;;19.25;21.92
62524;BME280;53689;56.878;60.672;2024-03-08T11:54:24;97079.19;;;19.27;21.53
62524;BME280;53689;56.878;60.672;2024-03-08T11:56:53;97074.25;;;19.24;22.16
62524;BME280;53689;56.878;60.672;2024-03-08T11:59:22;97081.84;;;19.34;21.53
62524;BME280;53689;56.878;60.672;2024-03-08T12:02:00;97073.41;;;19.23;21.55
62524;BME280;53689;56.878;60.672;2024-03-08T12:04:29;97077.31;;;19.27;21.53
62524;BME280;53689;56.878;60.672;2024-03-08T12:06:59;97076.72;;;19.25;21.92
62524;BME280;53689;56.878;60.672;2024-03-08T12:09:27;97077.72;;;19.31;21.74
62524;BME280;53689;56.878;60.672;2024-03-08T12:11:58;97078.38;;;19.26;21.61
62524;BME280;53689;56.878;60.672;2024-03-08T12:14:26;97075.69;;;19.26;22.06
62524;BME280;53689;56.878;60.672;2024-03-08T12:16:53;97069.91;;;19.23;21.49
62524;BME280;53689;56.878;60.672;2024-03-08T12:19:22;97069.69;;;19.24;21.82
62524;BME280;53689;56.878;60.672;2024-03-08T12:21:49;97076.50;;;19.27;21.81
62524;BME280;53689;56.878;60.672;2024-03-08T12:24:17;97069.47;;;19.26;22.38
62524;BME280;53689;56.878;60.672;2024-03-08T12:26:46;97070.53;;;19.25;22.10
62524;BME280;53689;56.878;60.672;2024-03-08T12:29:21;97074.44;;;19.22;22.16
62524;BME280;53689;56.878;60.672;2024-03-08T12:31:51;97074.44;;;19.22;22.40
62524;BME280;53689;56.878;60.672;2024-03-08T12:34:20;97076.72;;;19.25;21.99
62524;BME280;53689;56.878;60.672;2024-03-08T12:36:48;97077.31;;;19.27;22.18
62524;BME280;53689;56.878;60.672;2024-03-08T12:39:17;97076.94;;;19.17;21.52
62524;BME280;53689;56.878;60.672;2024-03-08T12:41:45;97076.72;;;19.25;21.93
62524;BME280;53689;56.878;60.672;2024-03-08T12:44:12;97075.69;;;19.20;22.27
62524;BME280;53689;56.878;60.672;2024-03-08T12:46:44;97077.13;;;19.22;22.37
62524;BME280;53689;56.878;60.672;2024-03-08T12:49:12;97063.94;;;19.14;21.83
62524;BME280;53689;56.878;60.672;2024-03-08T12:51:40;97073.22;;;19.18;21.43
62524;BME280;53689;56.878;60.672;2024-03-08T12:54:08;97073.25;;;19.11;22.07
62524;BME280;53689;56.878;60.672;2024-03-08T12:56:36;97078.41;;;19.06;22.20
62524;BME280;53689;56.878;60.672;2024-03-08T12:59:05;97075.31;;;19.16;22.04